createdAt,value
2023-02-12T00:01:52.757Z,69.40
2023-02-12T00:04:21.874Z,69.25
2023-02-12T00:06:50.646Z,69.30
2023-02-12T00:09:19.735Z,68.96
2023-02-12T00:11:49.893Z,69.93
2023-02-12T00:14:19.042Z,69.22
2023-02-12T00:16:47.841Z,69.51
2023-02-12T00:19:16.916Z,69.74
2023-02-12T00:21:45.743Z,69.67
2023-02-12T00:24:14.932Z,70.07
2023-02-12T00:26:43.739Z,69.87
2023-02-12T00:29:14.206Z,69.77
2023-02-12T00:31:43.184Z,69.30
2023-02-12T00:34:13.502Z,69.64
2023-02-12T00:36:43.105Z,69.64
2023-02-12T00:39:13.063Z,69.70
2023-02-12T00:41:42.053Z,69.52
2023-02-12T00:44:11.108Z,69.06
2023-02-12T00:46:41.947Z,69.02
2023-02-12T00:49:11.374Z,69.11
2023-02-12T00:51:40.128Z,69.02
2023-02-12T00:54:11.340Z,68.92
2023-02-12T00:56:40.299Z,68.70
2023-02-12T00:59:09.663Z,68.32
2023-02-12T01:01:38.513Z,68.82
2023-02-12T01:04:09.042Z,68.45
2023-02-12T01:06:37.913Z,68.84
2023-02-12T01:09:07.153Z,68.22
2023-02-12T01:11:36.149Z,67.69
2023-02-12T01:14:06.152Z,67.72
2023-02-12T01:16:36.765Z,68.10
2023-02-12T01:19:06.515Z,67.54
2023-02-12T01:21:37.012Z,67.51
2023-02-12T01:24:07.239Z,67.39
2023-02-12T01:26:36.160Z,67.21
2023-02-12T01:29:08.428Z,68.21
2023-02-12T01:31:40.600Z,67.04
2023-02-12T01:34:12.057Z,67.31
2023-02-12T01:36:42.301Z,66.79
2023-02-12T01:39:13.754Z,66.68
2023-02-12T01:41:45.473Z,66.76
2023-02-12T01:44:21.197Z,66.81
2023-02-12T01:46:55.959Z,66.96
2023-02-12T01:49:33.005Z,66.83
2023-02-12T01:52:11.899Z,66.41
2023-02-12T01:54:42.961Z,66.53
2023-02-12T01:57:15.636Z,66.62
2023-02-12T01:59:50.462Z,66.63
2023-02-12T02:02:22.358Z,66.92
2023-02-12T02:04:58.693Z,66.70
2023-02-12T02:07:29.628Z,66.18
2023-02-12T02:10:00.385Z,66.84
2023-02-12T02:12:50.423Z,66.36
2023-02-12T02:15:19.812Z,65.52
2023-02-12T02:18:00.399Z,64.80
2023-02-12T02:21:27.373Z,65.19
2023-02-12T02:25:02.403Z,65.23
2023-02-12T02:27:43.367Z,65.61
2023-02-12T02:30:45.404Z,65.18
2023-02-12T02:33:33.361Z,65.22
2023-02-12T02:36:20.500Z,65.48
2023-02-12T02:38:57.338Z,64.61
2023-02-12T02:41:34.807Z,64.67
2023-02-12T02:44:12.895Z,64.93
2023-02-12T02:46:48.860Z,64.89
2023-02-12T02:49:24.071Z,65.42
2023-02-12T02:52:03.795Z,65.44
2023-02-12T02:54:38.934Z,64.90
2023-02-12T02:57:13.149Z,65.22
2023-02-12T02:59:50.472Z,65.43
2023-02-12T03:02:29.189Z,64.75
2023-02-12T03:05:05.468Z,64.10
2023-02-12T03:07:39.823Z,63.81
2023-02-12T03:10:17.087Z,64.45
2023-02-12T03:12:55.089Z,63.98
2023-02-12T03:15:35.024Z,63.51
2023-02-12T03:18:11.162Z,63.24
2023-02-12T03:20:48.820Z,62.99
2023-02-12T03:23:26.336Z,63.53
2023-02-12T03:26:04.962Z,63.92
2023-02-12T03:28:37.883Z,64.88
2023-02-12T03:31:21.023Z,63.30
2023-02-12T03:34:08.614Z,63.13
2023-02-12T03:36:48.089Z,63.16
2023-02-12T03:39:29.648Z,63.55
2023-02-12T03:42:07.744Z,63.68
2023-02-12T03:44:52.048Z,62.66
2023-02-12T03:47:29.131Z,62.94
2023-02-12T03:50:07.987Z,62.96
2023-02-12T03:52:37.988Z,63.08
2023-02-12T03:55:08.409Z,63.32
2023-02-12T03:57:44.111Z,63.56
2023-02-12T04:00:19.311Z,63.44
2023-02-12T04:02:50.124Z,63.57
2023-02-12T04:05:24.660Z,62.98
2023-02-12T04:07:56.736Z,63.50
2023-02-12T04:10:37.120Z,62.50
2023-02-12T04:13:16.816Z,62.88
2023-02-12T04:16:14.959Z,61.87
2023-02-12T04:18:49.476Z,61.62
2023-02-12T04:21:39.391Z,62.60
2023-02-12T04:24:19.995Z,62.00
2023-02-12T04:26:56.257Z,62.39
2023-02-12T04:29:36.822Z,62.55
2023-02-12T04:32:16.158Z,62.94
2023-02-12T04:34:53.296Z,63.02
2023-02-12T04:37:29.922Z,62.94
2023-02-12T04:40:01.838Z,62.60
2023-02-12T04:42:30.760Z,62.50
2023-02-12T04:44:59.927Z,62.17
2023-02-12T04:47:28.828Z,62.31
2023-02-12T04:49:57.942Z,62.92
2023-02-12T04:52:28.095Z,62.08
2023-02-12T04:54:57.163Z,62.13
2023-02-12T04:57:25.988Z,62.29
2023-02-12T04:59:55.126Z,62.15
2023-02-12T05:02:23.969Z,61.40
2023-02-12T05:04:53.233Z,61.34
2023-02-12T05:07:22.085Z,62.59
2023-02-12T05:09:52.661Z,62.87
2023-02-12T05:12:21.632Z,62.22
2023-02-12T05:14:50.679Z,62.05
2023-02-12T05:17:19.460Z,61.93
2023-02-12T05:19:49.680Z,62.28
2023-02-12T05:22:18.768Z,61.17
2023-02-12T05:24:47.913Z,61.47
2023-02-12T05:27:18.126Z,61.62
2023-02-12T05:29:47.154Z,62.30
2023-02-12T05:32:16.047Z,62.67
2023-02-12T05:34:45.213Z,62.52
2023-02-12T05:37:13.936Z,62.23
2023-02-12T05:39:43.111Z,61.76
2023-02-12T05:42:11.908Z,62.23
2023-02-12T05:44:42.303Z,62.45
2023-02-12T05:47:11.041Z,62.87
2023-02-12T05:49:40.083Z,62.41
2023-02-12T05:52:08.987Z,61.91
2023-02-12T05:54:38.125Z,61.84
2023-02-12T05:57:08.569Z,61.84
2023-02-12T05:59:37.719Z,61.82
2023-02-12T06:02:07.909Z,62.01
2023-02-12T06:04:36.954Z,61.88
2023-02-12T06:07:07.323Z,62.54
2023-02-12T06:09:36.881Z,61.78
2023-02-12T06:12:06.282Z,61.43
2023-02-12T06:14:35.353Z,62.65
2023-02-12T06:17:04.197Z,61.81
2023-02-12T06:19:34.704Z,61.39
2023-02-12T06:22:03.553Z,61.60
2023-02-12T06:24:32.830Z,61.63
2023-02-12T06:27:01.699Z,62.34
2023-02-12T06:29:30.991Z,61.43
2023-02-12T06:31:59.906Z,61.79
2023-02-12T06:34:29.151Z,61.41
2023-02-12T06:36:59.435Z,60.98
2023-02-12T06:39:28.487Z,61.26
2023-02-12T06:41:57.393Z,61.95
2023-02-12T06:44:26.511Z,61.24
2023-02-12T06:46:55.354Z,61.23
2023-02-12T06:49:24.472Z,60.96
2023-02-12T06:51:53.239Z,61.07
2023-02-12T06:54:23.687Z,60.69
2023-02-12T06:56:52.473Z,61.02
2023-02-12T06:59:21.579Z,60.83
2023-02-12T07:01:50.363Z,60.56
2023-02-12T07:04:19.503Z,60.15
2023-02-12T07:06:48.306Z,59.90
2023-02-12T07:09:17.417Z,59.89
2023-02-12T07:11:47.545Z,60.26
2023-02-12T07:14:17.868Z,59.98
2023-02-12T07:16:46.909Z,59.75
2023-02-12T07:19:16.783Z,59.89
2023-02-12T07:21:45.655Z,59.18
2023-02-12T07:24:16.085Z,58.73
2023-02-12T07:26:45.098Z,58.91
2023-02-12T07:29:15.909Z,58.59
2023-02-12T07:31:45.063Z,59.08
2023-02-12T07:34:14.313Z,58.96
2023-02-12T07:36:43.281Z,58.99
2023-02-12T07:39:13.178Z,59.47
2023-02-12T07:41:41.997Z,59.65
2023-02-12T07:44:14.902Z,58.65
2023-02-12T07:46:48.336Z,59.19
2023-02-12T07:49:21.591Z,58.78
2023-02-12T07:51:51.529Z,58.67
2023-02-12T07:54:20.632Z,58.35
2023-02-12T07:56:49.448Z,57.77
2023-02-12T07:59:21.698Z,56.83
2023-02-12T08:01:53.045Z,56.82
2023-02-12T08:04:25.578Z,56.62
2023-02-12T08:06:57.103Z,56.36
2023-02-12T08:09:30.943Z,56.37
2023-02-12T08:11:59.898Z,55.75
2023-02-12T08:14:30.913Z,55.67
2023-02-12T08:16:59.697Z,55.88
2023-02-12T08:19:28.817Z,56.75
2023-02-12T08:21:58.918Z,55.95
2023-02-12T08:24:28.159Z,55.02
2023-02-12T08:26:57.784Z,55.20
2023-02-12T08:29:30.878Z,54.83
2023-02-12T08:32:03.402Z,54.57
2023-02-12T08:34:34.839Z,54.85
2023-02-12T08:37:06.523Z,54.61
2023-02-12T08:39:35.671Z,54.37
2023-02-12T08:42:04.546Z,53.36
2023-02-12T08:44:35.471Z,53.58
2023-02-12T08:47:06.044Z,53.59
2023-02-12T08:49:35.160Z,53.44
2023-02-12T08:52:03.978Z,53.08
2023-02-12T08:54:33.586Z,52.95
2023-02-12T08:57:04.506Z,52.88
2023-02-12T08:59:35.007Z,52.44
2023-02-12T09:02:08.704Z,52.64
2023-02-12T09:04:37.937Z,51.72
2023-02-12T09:07:08.898Z,51.27
2023-02-12T09:09:39.788Z,51.06
2023-02-12T09:12:08.735Z,50.52
2023-02-12T09:14:39.707Z,49.91
2023-02-12T09:17:08.499Z,47.83
2023-02-12T09:19:37.597Z,45.45
2023-02-12T09:22:06.352Z,41.81
2023-02-12T09:24:35.433Z,39.72
2023-02-12T09:27:04.454Z,37.56
2023-02-12T09:29:33.567Z,36.51
2023-02-12T09:32:06.670Z,34.91
2023-02-12T09:34:36.555Z,34.03
2023-02-12T09:37:05.382Z,34.39
2023-02-12T09:39:34.628Z,33.98
2023-02-12T09:42:34.809Z,34.66
2023-02-12T09:45:17.740Z,34.88
2023-02-12T09:48:01.080Z,35.42
2023-02-12T09:50:44.158Z,35.83
2023-02-12T09:53:17.746Z,37.08
2023-02-12T09:55:47.359Z,37.39
2023-02-12T09:58:25.390Z,38.80
2023-02-12T10:00:55.008Z,38.85
2023-02-12T10:03:27.096Z,39.14
2023-02-12T10:06:05.334Z,39.20
2023-02-12T10:09:03.417Z,38.66
2023-02-12T10:11:54.811Z,39.24
2023-02-12T10:15:05.882Z,38.67
2023-02-12T10:17:44.032Z,39.41
2023-02-12T10:21:03.292Z,38.70
2023-02-12T10:24:12.599Z,38.50
2023-02-12T10:26:47.646Z,38.43
2023-02-12T10:29:23.080Z,38.14
2023-02-12T10:31:58.571Z,38.79
2023-02-12T10:34:34.002Z,39.14
2023-02-12T10:37:14.223Z,39.82
2023-02-12T10:39:49.859Z,39.34
2023-02-12T10:42:27.200Z,39.58
2023-02-12T10:44:56.393Z,40.14
2023-02-12T10:47:26.860Z,39.98
2023-02-12T10:50:01.403Z,40.81
2023-02-12T10:52:43.589Z,41.96
2023-02-12T10:55:31.011Z,43.63
2023-02-12T10:58:02.307Z,45.06
2023-02-12T11:00:34.936Z,46.14
2023-02-12T11:03:19.746Z,46.82
2023-02-12T11:05:50.382Z,47.61
2023-02-12T11:08:36.573Z,48.26
2023-02-12T11:11:10.997Z,48.85
2023-02-12T11:13:45.881Z,47.86
2023-02-12T11:16:15.089Z,45.45
2023-02-12T11:18:44.498Z,42.49
2023-02-12T11:21:14.609Z,40.14
2023-02-12T11:23:46.213Z,38.34
2023-02-12T11:26:29.012Z,37.89
2023-02-12T11:29:00.777Z,37.92
2023-02-12T11:31:32.478Z,37.82
2023-02-12T11:34:18.865Z,37.22
2023-02-12T11:36:51.572Z,36.74
2023-02-12T11:39:27.818Z,35.91
2023-02-12T11:42:00.831Z,35.58
2023-02-12T11:44:36.224Z,34.88
2023-02-12T11:47:10.675Z,34.21
2023-02-12T11:49:44.574Z,33.07
2023-02-12T11:52:22.424Z,32.10
2023-02-12T11:54:58.056Z,31.86
2023-02-12T11:57:37.989Z,31.96
2023-02-12T12:00:17.038Z,31.31
2023-02-12T12:03:02.626Z,30.31
2023-02-12T12:05:39.497Z,29.59
2023-02-12T12:08:19.577Z,28.63
2023-02-12T12:10:56.602Z,28.71
2023-02-12T12:13:34.922Z,30.66
2023-02-12T12:16:32.164Z,32.93
2023-02-12T12:19:29.759Z,34.63
2023-02-12T12:22:06.499Z,35.64
2023-02-12T12:24:46.312Z,37.22
2023-02-12T12:27:50.378Z,38.85
2023-02-12T12:30:32.734Z,37.92
2023-02-12T12:33:07.829Z,37.81
2023-02-12T12:35:53.589Z,39.56
2023-02-12T12:38:40.552Z,41.12
2023-02-12T12:41:27.109Z,42.68
2023-02-12T12:44:20.330Z,44.15
2023-02-12T12:47:11.529Z,44.76
2023-02-12T12:50:01.462Z,45.82
2023-02-12T12:53:13.147Z,47.09
2023-02-12T12:56:20.341Z,48.21
2023-02-12T12:59:22.203Z,48.96
2023-02-12T13:02:34.197Z,49.50
2023-02-12T13:05:53.465Z,50.52
2023-02-12T13:08:41.074Z,51.57
2023-02-12T13:11:28.175Z,52.08
2023-02-12T13:14:18.971Z,52.81
2023-02-12T13:16:56.976Z,53.44
2023-02-12T13:19:44.336Z,53.82
2023-02-12T13:22:26.418Z,54.32
2023-02-12T13:25:08.151Z,54.19
2023-02-12T13:27:42.372Z,53.67
2023-02-12T13:30:25.067Z,54.34
2023-02-12T13:33:09.423Z,54.98
2023-02-12T13:35:44.577Z,55.39
2023-02-12T13:38:23.711Z,56.08
2023-02-12T13:41:00.902Z,56.16
2023-02-12T13:43:44.706Z,55.78
2023-02-12T13:46:30.607Z,55.75
2023-02-12T13:49:18.757Z,56.21
2023-02-12T13:51:51.603Z,56.83
2023-02-12T13:54:48.635Z,57.04
2023-02-12T13:57:21.047Z,57.41
2023-02-12T13:59:53.826Z,57.73
2023-02-12T14:02:45.989Z,57.91
2023-02-12T14:05:26.484Z,58.22
2023-02-12T14:07:59.104Z,59.09
2023-02-12T14:10:36.312Z,59.22
2023-02-12T14:13:19.109Z,58.79
2023-02-12T14:15:52.717Z,59.27
2023-02-12T14:18:33.546Z,59.98
2023-02-12T14:21:36.510Z,60.00
2023-02-12T14:24:51.750Z,60.25
2023-02-12T14:27:37.422Z,60.02
2023-02-12T14:30:31.883Z,59.83
2023-02-12T14:33:20.697Z,59.98
2023-02-12T14:36:15.680Z,60.12
2023-02-12T14:39:24.696Z,60.37
2023-02-12T14:41:55.013Z,60.60
2023-02-12T14:44:56.258Z,61.08
2023-02-12T14:47:53.104Z,61.19
2023-02-12T14:50:29.620Z,61.52
2023-02-12T14:53:14.830Z,61.45
2023-02-12T14:55:49.083Z,62.14
2023-02-12T14:58:22.443Z,62.22
2023-02-12T15:00:56.339Z,62.10
2023-02-12T15:03:39.998Z,62.14
2023-02-12T15:06:17.650Z,62.53
2023-02-12T15:08:57.276Z,62.16
2023-02-12T15:11:42.297Z,62.34
2023-02-12T15:14:21.329Z,62.86
2023-02-12T15:17:00.101Z,63.15
2023-02-12T15:19:44.586Z,63.25
2023-02-12T15:22:24.275Z,63.66
2023-02-12T15:24:54.493Z,63.74
2023-02-12T15:27:23.787Z,64.02
2023-02-12T15:29:55.599Z,64.44
2023-02-12T15:32:29.880Z,64.72
2023-02-12T15:34:58.792Z,65.01
2023-02-12T15:37:31.565Z,65.48
2023-02-12T15:40:05.732Z,65.66
2023-02-12T15:42:37.871Z,65.87
2023-02-12T15:45:24.858Z,66.04
2023-02-12T15:48:08.236Z,65.86
2023-02-12T15:50:48.297Z,65.83
2023-02-12T15:53:19.227Z,66.23
2023-02-12T15:55:51.696Z,66.26
2023-02-12T15:58:25.401Z,66.79
2023-02-12T16:00:56.248Z,66.75
2023-02-12T16:03:28.928Z,66.65
2023-02-12T16:06:03.965Z,66.96
2023-02-12T16:08:35.781Z,67.21
2023-02-12T16:11:14.131Z,67.54
2023-02-12T16:13:48.185Z,67.80
2023-02-12T16:16:27.838Z,67.60
2023-02-12T16:19:18.009Z,68.45
2023-02-12T16:21:51.296Z,68.67
2023-02-12T16:24:31.071Z,68.28
2023-02-12T16:27:10.221Z,68.93
2023-02-12T16:29:46.737Z,69.24
2023-02-12T16:32:31.729Z,69.23
2023-02-12T16:35:06.843Z,69.47
2023-02-12T16:37:46.666Z,70.38
2023-02-12T16:40:31.629Z,70.33
2023-02-12T16:43:24.094Z,70.06
2023-02-12T16:46:04.337Z,70.24
2023-02-12T16:48:41.503Z,70.53
2023-02-12T16:51:25.236Z,70.83
2023-02-12T16:53:57.616Z,71.10
2023-02-12T16:56:30.625Z,71.02
2023-02-12T16:59:02.841Z,71.69
2023-02-12T17:01:35.674Z,72.26
2023-02-12T17:04:09.310Z,72.05
2023-02-12T17:06:38.400Z,72.32
2023-02-12T17:09:07.200Z,72.32
2023-02-12T17:11:36.279Z,72.11
2023-02-12T17:14:06.449Z,72.33
2023-02-12T17:16:35.853Z,72.42
2023-02-12T17:19:04.714Z,72.86
2023-02-12T17:21:39.629Z,72.88
2023-02-12T17:24:17.370Z,72.63
2023-02-12T17:26:46.499Z,73.07
2023-02-12T17:29:16.610Z,73.35
2023-02-12T17:31:45.862Z,73.82
2023-02-12T17:34:16.475Z,73.68
2023-02-12T17:36:45.599Z,73.76
2023-02-12T17:39:16.924Z,74.32
2023-02-12T17:41:46.338Z,74.11
2023-02-12T17:44:16.628Z,74.41
2023-02-12T17:46:45.766Z,74.25
2023-02-12T17:49:14.778Z,74.72
2023-02-12T17:51:43.899Z,74.40
2023-02-12T17:54:13.980Z,74.77
2023-02-12T17:56:43.083Z,76.11
2023-02-12T17:59:12.003Z,77.32
2023-02-12T18:01:42.549Z,76.32
2023-02-12T18:04:11.386Z,77.22
2023-02-12T18:06:40.537Z,77.93
2023-02-12T18:09:09.373Z,78.01
2023-02-12T18:11:40.505Z,78.51
2023-02-12T18:14:09.500Z,78.71
2023-02-12T18:16:38.674Z,78.29
2023-02-12T18:19:08.885Z,78.24
2023-02-12T18:21:38.815Z,78.34
2023-02-12T18:24:08.814Z,79.17
2023-02-12T18:26:37.983Z,78.27
2023-02-12T18:29:06.822Z,78.33
2023-02-12T18:31:36.097Z,78.68
2023-02-12T18:34:08.391Z,78.42
2023-02-12T18:36:37.800Z,78.20
2023-02-12T18:39:06.706Z,78.00
2023-02-12T18:41:36.429Z,78.29
2023-02-12T18:44:05.661Z,78.28
2023-02-12T18:46:34.784Z,77.99
2023-02-12T18:49:05.800Z,77.64
2023-02-12T18:51:39.899Z,77.44
2023-02-12T18:54:12.764Z,77.66
2023-02-12T18:56:44.799Z,77.21
2023-02-12T18:59:16.052Z,77.14
2023-02-12T19:01:47.274Z,76.98
2023-02-12T19:04:19.100Z,77.05
2023-02-12T19:06:52.411Z,76.80
2023-02-12T19:09:24.651Z,76.36
2023-02-12T19:11:58.847Z,76.68
2023-02-12T19:14:29.411Z,76.47
2023-02-12T19:16:58.602Z,76.39
2023-02-12T19:19:28.378Z,76.41
2023-02-12T19:21:58.974Z,76.74
2023-02-12T19:24:37.760Z,76.75
2023-02-12T19:27:13.852Z,77.03
2023-02-12T19:29:42.805Z,76.87
2023-02-12T19:32:12.034Z,77.28
2023-02-12T19:34:40.880Z,77.05
2023-02-12T19:37:13.012Z,77.05
2023-02-12T19:39:42.303Z,77.17
2023-02-12T19:42:12.700Z,77.01
2023-02-12T19:44:42.326Z,77.25
2023-02-12T19:47:11.603Z,77.34
2023-02-12T19:49:41.449Z,78.19
2023-02-12T19:52:11.918Z,78.23
2023-02-12T19:54:40.773Z,78.04
2023-02-12T19:57:11.455Z,78.57
2023-02-12T19:59:42.136Z,78.14
2023-02-12T20:02:11.562Z,78.30
2023-02-12T20:04:40.655Z,78.88
2023-02-12T20:07:11.489Z,79.04
2023-02-12T20:09:40.365Z,78.63
2023-02-12T20:12:09.527Z,78.37
2023-02-12T20:14:38.355Z,78.88
2023-02-12T20:17:07.674Z,78.50
2023-02-12T20:19:36.552Z,78.58
2023-02-12T20:22:05.652Z,79.05
2023-02-12T20:24:36.332Z,78.74
2023-02-12T20:27:05.916Z,79.13
2023-02-12T20:29:34.725Z,79.48
2023-02-12T20:32:03.842Z,79.92
2023-02-12T20:34:42.476Z,80.56
2023-02-12T20:37:18.866Z,80.44
2023-02-12T20:39:49.182Z,81.07
2023-02-12T20:42:18.369Z,81.41
2023-02-12T20:44:47.366Z,81.76
2023-02-12T20:47:16.501Z,81.54
2023-02-12T20:49:45.296Z,81.92
2023-02-12T20:52:14.543Z,82.09
2023-02-12T20:54:43.510Z,81.75
2023-02-12T20:57:14.146Z,81.94
2023-02-12T20:59:43.227Z,82.34
2023-02-12T21:02:13.309Z,82.99
2023-02-12T21:04:42.107Z,83.09
2023-02-12T21:07:11.314Z,83.21
2023-02-12T21:09:40.112Z,83.23
2023-02-12T21:12:09.230Z,83.38
2023-02-12T21:14:39.640Z,84.01
2023-02-12T21:17:08.737Z,83.76
2023-02-12T21:19:37.532Z,83.55
2023-02-12T21:22:06.760Z,83.57
2023-02-12T21:24:35.770Z,84.13
2023-02-12T21:27:05.227Z,84.54
2023-02-12T21:29:34.113Z,84.29
2023-02-12T21:32:04.735Z,84.96
2023-02-12T21:34:33.809Z,85.70
2023-02-12T21:37:02.922Z,86.05
2023-02-12T21:39:31.957Z,87.51
2023-02-12T21:42:04.128Z,88.37
2023-02-12T21:44:35.840Z,88.91
2023-02-12T21:47:07.454Z,88.96
2023-02-12T21:49:36.427Z,90.05
2023-02-12T21:52:07.409Z,90.25
2023-02-12T21:54:36.295Z,90.80
2023-02-12T21:57:05.079Z,91.20
2023-02-12T21:59:34.181Z,91.75
2023-02-12T22:02:02.969Z,91.87
2023-02-12T22:04:33.449Z,92.28
2023-02-12T22:07:03.471Z,92.30
2023-02-12T22:09:32.898Z,92.23
2023-02-12T22:12:01.829Z,91.80
2023-02-12T22:14:31.195Z,91.82
2023-02-12T22:17:00.121Z,92.38
2023-02-12T22:19:29.242Z,92.24
2023-02-12T22:21:59.403Z,93.22
2023-02-12T22:24:28.605Z,93.04
2023-02-12T22:26:57.359Z,93.54
2023-02-12T22:29:26.450Z,93.11
2023-02-12T22:31:55.565Z,93.43
2023-02-12T22:34:24.761Z,93.78
2023-02-12T22:36:53.591Z,93.89
2023-02-12T22:39:24.195Z,93.87
2023-02-12T22:41:52.987Z,94.50
2023-02-12T22:44:22.205Z,94.55
2023-02-12T22:46:51.223Z,94.49
2023-02-12T22:49:20.565Z,94.16
2023-02-12T22:51:49.390Z,94.29
2023-02-12T22:54:19.868Z,94.71
2023-02-12T22:56:53.415Z,94.75
2023-02-12T22:59:22.556Z,94.79
2023-02-12T23:01:51.418Z,94.63
2023-02-12T23:04:20.929Z,94.86
2023-02-12T23:06:49.952Z,94.55
2023-02-12T23:09:19.834Z,94.54
2023-02-12T23:11:49.314Z,94.24
2023-02-12T23:14:20.140Z,94.17
2023-02-12T23:16:49.060Z,94.62
2023-02-12T23:19:18.423Z,94.76
2023-02-12T23:21:47.226Z,94.97
2023-02-12T23:24:16.567Z,95.03
2023-02-12T23:26:45.431Z,95.33
2023-02-12T23:29:15.630Z,95.22
2023-02-12T23:31:45.890Z,95.06
2023-02-12T23:34:15.075Z,94.85
2023-02-12T23:36:43.897Z,94.35
2023-02-12T23:39:14.473Z,94.19
2023-02-12T23:41:43.538Z,94.65
2023-02-12T23:44:14.080Z,94.19
2023-02-12T23:46:43.072Z,94.33
2023-02-12T23:49:13.556Z,94.05
2023-02-12T23:51:42.443Z,94.01
2023-02-12T23:54:12.007Z,94.17
2023-02-12T23:56:40.918Z,93.61
2023-02-12T23:59:10.007Z,93.75
